sensor_id;sensor_type;location;lat;lon;timestamp;P1;durP1;ratioP1;P2;durP2;ratioP2
79414;SDS011;68864;44.972;19.612;2023-12-14T00:02:25;4.20;;;1.05;;
79414;SDS011;68864;44.972;19.612;2023-12-14T00:04:52;4.90;;;1.33;;
79414;SDS011;68864;44.972;19.612;2023-12-14T00:07:20;6.35;;;5.63;;
79414;SDS011;68864;44.972;19.612;2023-12-14T00:09:47;5.20;;;1.83;;
79414;SDS011;68864;44.972;19.612;2023-12-14T00:12:14;6.15;;;4.40;;
79414;SDS011;68864;44.972;19.612;2023-12-14T00:14:41;4.15;;;1.38;;
79414;SDS011;68864;44.972;19.612;2023-12-14T00:17:08;3.28;;;1.27;;
79414;SDS011;68864;44.972;19.612;2023-12-14T00:19:35;3.50;;;1.02;;
79414;SDS011;68864;44.972;19.612;2023-12-14T00:22:02;3.88;;;3.10;;
79414;SDS011;68864;44.972;19.612;2023-12-14T00:33:27;4.82;;;1.92;;
79414;SDS011;68864;44.972;19.612;2023-12-14T00:35:54;5.00;;;3.53;;
79414;SDS011;68864;44.972;19.612;2023-12-14T00:38:21;4.32;;;0.95;;
79414;SDS011;68864;44.972;19.612;2023-12-14T00:40:50;4.05;;;1.35;;
79414;SDS011;68864;44.972;19.612;2023-12-14T00:43:16;5.18;;;2.55;;
79414;SDS011;68864;44.972;19.612;2023-12-14T00:45:43;3.13;;;1.15;;
79414;SDS011;68864;44.972;19.612;2023-12-14T00:48:11;5.07;;;3.35;;
79414;SDS011;68864;44.972;19.612;2023-12-14T00:50:38;7.65;;;2.17;;
79414;SDS011;68864;44.972;19.612;2023-12-14T00:53:04;4.25;;;1.83;;
79414;SDS011;68864;44.972;19.612;2023-12-14T01:01:22;4.93;;;4.28;;
79414;SDS011;68864;44.972;19.612;2023-12-14T01:03:49;5.30;;;2.00;;
79414;SDS011;68864;44.972;19.612;2023-12-14T01:06:16;5.95;;;2.72;;
79414;SDS011;68864;44.972;19.612;2023-12-14T01:08:42;4.93;;;1.40;;
79414;SDS011;68864;44.972;19.612;2023-12-14T01:11:11;4.50;;;1.42;;
79414;SDS011;68864;44.972;19.612;2023-12-14T01:13:38;3.95;;;1.48;;
79414;SDS011;68864;44.972;19.612;2023-12-14T01:16:05;4.43;;;1.63;;
79414;SDS011;68864;44.972;19.612;2023-12-14T01:23:25;5.22;;;1.02;;
79414;SDS011;68864;44.972;19.612;2023-12-14T01:25:52;5.28;;;1.85;;
79414;SDS011;68864;44.972;19.612;2023-12-14T01:28:21;6.78;;;5.75;;
79414;SDS011;68864;44.972;19.612;2023-12-14T01:30:48;8.82;;;4.20;;
79414;SDS011;68864;44.972;19.612;2023-12-14T01:33:15;5.40;;;2.15;;
79414;SDS011;68864;44.972;19.612;2023-12-14T01:35:41;4.75;;;1.60;;
79414;SDS011;68864;44.972;19.612;2023-12-14T01:38:08;5.03;;;2.05;;
79414;SDS011;68864;44.972;19.612;2023-12-14T01:40:35;5.63;;;1.30;;
79414;SDS011;68864;44.972;19.612;2023-12-14T01:43:08;4.78;;;2.33;;
79414;SDS011;68864;44.972;19.612;2023-12-14T01:45:37;5.72;;;1.75;;
79414;SDS011;68864;44.972;19.612;2023-12-14T01:48:04;4.45;;;1.30;;
79414;SDS011;68864;44.972;19.612;2023-12-14T01:50:31;6.57;;;1.80;;
79414;SDS011;68864;44.972;19.612;2023-12-14T01:52:58;5.53;;;1.55;;
79414;SDS011;68864;44.972;19.612;2023-12-14T01:55:25;4.97;;;2.13;;
79414;SDS011;68864;44.972;19.612;2023-12-14T01:57:52;4.35;;;1.77;;
79414;SDS011;68864;44.972;19.612;2023-12-14T02:00:21;4.30;;;1.83;;
79414;SDS011;68864;44.972;19.612;2023-12-14T02:03:00;8.23;;;1.52;;
79414;SDS011;68864;44.972;19.612;2023-12-14T02:05:27;5.10;;;1.30;;
79414;SDS011;68864;44.972;19.612;2023-12-14T02:07:54;6.20;;;2.35;;
79414;SDS011;68864;44.972;19.612;2023-12-14T02:10:22;3.65;;;2.17;;
79414;SDS011;68864;44.972;19.612;2023-12-14T02:12:51;4.85;;;1.73;;
79414;SDS011;68864;44.972;19.612;2023-12-14T02:15:18;4.72;;;2.05;;
79414;SDS011;68864;44.972;19.612;2023-12-14T02:20:13;4.53;;;1.73;;
79414;SDS011;68864;44.972;19.612;2023-12-14T02:22:51;3.95;;;1.17;;
79414;SDS011;68864;44.972;19.612;2023-12-14T02:25:18;3.75;;;1.20;;
79414;SDS011;68864;44.972;19.612;2023-12-14T02:27:46;3.78;;;1.73;;
79414;SDS011;68864;44.972;19.612;2023-12-14T02:30:14;6.32;;;1.92;;
79414;SDS011;68864;44.972;19.612;2023-12-14T02:35:08;4.32;;;1.08;;
79414;SDS011;68864;44.972;19.612;2023-12-14T02:37:35;3.70;;;1.67;;
79414;SDS011;68864;44.972;19.612;2023-12-14T02:40:07;8.25;;;3.38;;
79414;SDS011;68864;44.972;19.612;2023-12-14T02:42:35;5.93;;;2.08;;
79414;SDS011;68864;44.972;19.612;2023-12-14T02:45:02;5.63;;;1.60;;
79414;SDS011;68864;44.972;19.612;2023-12-14T02:47:29;7.68;;;3.28;;
79414;SDS011;68864;44.972;19.612;2023-12-14T02:49:56;10.88;;;6.18;;
79414;SDS011;68864;44.972;19.612;2023-12-14T02:52:23;7.80;;;5.22;;
79414;SDS011;68864;44.972;19.612;2023-12-14T02:54:50;5.38;;;2.42;;
79414;SDS011;68864;44.972;19.612;2023-12-14T02:57:18;6.82;;;3.05;;
79414;SDS011;68864;44.972;19.612;2023-12-14T02:59:45;8.90;;;3.45;;
79414;SDS011;68864;44.972;19.612;2023-12-14T03:02:12;8.65;;;4.28;;
79414;SDS011;68864;44.972;19.612;2023-12-14T03:04:39;10.43;;;3.88;;
79414;SDS011;68864;44.972;19.612;2023-12-14T03:07:06;8.75;;;4.45;;
79414;SDS011;68864;44.972;19.612;2023-12-14T03:09:33;8.63;;;3.90;;
79414;SDS011;68864;44.972;19.612;2023-12-14T03:12:00;7.75;;;3.75;;
79414;SDS011;68864;44.972;19.612;2023-12-14T03:14:31;10.68;;;5.32;;
79414;SDS011;68864;44.972;19.612;2023-12-14T03:16:59;9.95;;;4.47;;
79414;SDS011;68864;44.972;19.612;2023-12-14T03:19:26;9.77;;;7.13;;
79414;SDS011;68864;44.972;19.612;2023-12-14T03:21:53;7.38;;;5.93;;
79414;SDS011;68864;44.972;19.612;2023-12-14T03:24:20;7.47;;;5.60;;
79414;SDS011;68864;44.972;19.612;2023-12-14T03:26:47;6.25;;;2.92;;
79414;SDS011;68864;44.972;19.612;2023-12-14T03:29:13;6.43;;;2.67;;
79414;SDS011;68864;44.972;19.612;2023-12-14T03:31:42;5.93;;;2.30;;
79414;SDS011;68864;44.972;19.612;2023-12-14T03:34:10;7.75;;;2.65;;
79414;SDS011;68864;44.972;19.612;2023-12-14T03:36:38;7.60;;;3.25;;
79414;SDS011;68864;44.972;19.612;2023-12-14T03:39:05;8.55;;;3.45;;
79414;SDS011;68864;44.972;19.612;2023-12-14T03:41:32;7.82;;;2.90;;
79414;SDS011;68864;44.972;19.612;2023-12-14T03:43:59;8.30;;;3.85;;
79414;SDS011;68864;44.972;19.612;2023-12-14T03:46:26;8.52;;;4.07;;
79414;SDS011;68864;44.972;19.612;2023-12-14T03:48:54;8.55;;;4.70;;
79414;SDS011;68864;44.972;19.612;2023-12-14T03:51:21;9.32;;;6.95;;
79414;SDS011;68864;44.972;19.612;2023-12-14T03:53:49;7.88;;;6.47;;
79414;SDS011;68864;44.972;19.612;2023-12-14T03:56:15;7.13;;;3.03;;
79414;SDS011;68864;44.972;19.612;2023-12-14T03:58:42;10.02;;;6.85;;
79414;SDS011;68864;44.972;19.612;2023-12-14T04:01:14;8.27;;;4.35;;
79414;SDS011;68864;44.972;19.612;2023-12-14T04:03:42;8.55;;;4.43;;
79414;SDS011;68864;44.972;19.612;2023-12-14T04:06:10;8.10;;;3.63;;
79414;SDS011;68864;44.972;19.612;2023-12-14T04:08:37;8.18;;;4.03;;
79414;SDS011;68864;44.972;19.612;2023-12-14T04:11:05;11.65;;;6.13;;
79414;SDS011;68864;44.972;19.612;2023-12-14T04:13:32;10.35;;;7.22;;
79414;SDS011;68864;44.972;19.612;2023-12-14T04:15:59;11.88;;;6.22;;
79414;SDS011;68864;44.972;19.612;2023-12-14T04:18:26;14.88;;;8.80;;
79414;SDS011;68864;44.972;19.612;2023-12-14T04:20:53;12.95;;;8.50;;
79414;SDS011;68864;44.972;19.612;2023-12-14T04:23:22;12.07;;;7.90;;
79414;SDS011;68864;44.972;19.612;2023-12-14T04:25:49;12.18;;;4.90;;
79414;SDS011;68864;44.972;19.612;2023-12-14T04:28:15;12.63;;;8.40;;
79414;SDS011;68864;44.972;19.612;2023-12-14T04:30:42;11.13;;;5.43;;
79414;SDS011;68864;44.972;19.612;2023-12-14T04:33:09;14.23;;;8.98;;
79414;SDS011;68864;44.972;19.612;2023-12-14T04:35:36;9.95;;;5.03;;
79414;SDS011;68864;44.972;19.612;2023-12-14T04:38:03;15.48;;;9.57;;
79414;SDS011;68864;44.972;19.612;2023-12-14T04:40:32;9.05;;;3.70;;
79414;SDS011;68864;44.972;19.612;2023-12-14T04:42:59;9.35;;;3.53;;
79414;SDS011;68864;44.972;19.612;2023-12-14T04:45:25;10.18;;;4.03;;
79414;SDS011;68864;44.972;19.612;2023-12-14T04:47:52;6.28;;;3.28;;
79414;SDS011;68864;44.972;19.612;2023-12-14T04:50:19;9.23;;;5.25;;
79414;SDS011;68864;44.972;19.612;2023-12-14T04:52:46;12.15;;;9.73;;
79414;SDS011;68864;44.972;19.612;2023-12-14T04:55:13;17.90;;;12.02;;
79414;SDS011;68864;44.972;19.612;2023-12-14T04:57:42;13.55;;;6.20;;
79414;SDS011;68864;44.972;19.612;2023-12-14T05:00:09;17.00;;;10.15;;
79414;SDS011;68864;44.972;19.612;2023-12-14T05:02:37;19.15;;;12.75;;
79414;SDS011;68864;44.972;19.612;2023-12-14T05:05:04;10.20;;;5.15;;
79414;SDS011;68864;44.972;19.612;2023-12-14T05:09:58;16.80;;;8.00;;
79414;SDS011;68864;44.972;19.612;2023-12-14T05:12:25;19.05;;;13.30;;
79414;SDS011;68864;44.972;19.612;2023-12-14T05:14:55;17.20;;;10.82;;
79414;SDS011;68864;44.972;19.612;2023-12-14T05:17:22;16.02;;;8.73;;
79414;SDS011;68864;44.972;19.612;2023-12-14T05:19:48;15.73;;;9.32;;
79414;SDS011;68864;44.972;19.612;2023-12-14T05:22:15;30.58;;;16.05;;
79414;SDS011;68864;44.972;19.612;2023-12-14T05:24:44;19.38;;;11.82;;
79414;SDS011;68864;44.972;19.612;2023-12-14T05:27:13;25.27;;;13.40;;
79414;SDS011;68864;44.972;19.612;2023-12-14T05:29:39;27.70;;;16.00;;
79414;SDS011;68864;44.972;19.612;2023-12-14T05:32:08;21.00;;;10.35;;
79414;SDS011;68864;44.972;19.612;2023-12-14T05:34:35;29.95;;;11.75;;
79414;SDS011;68864;44.972;19.612;2023-12-14T05:37:01;20.90;;;9.68;;
79414;SDS011;68864;44.972;19.612;2023-12-14T05:39:28;16.65;;;6.47;;
79414;SDS011;68864;44.972;19.612;2023-12-14T05:41:55;20.05;;;12.50;;
79414;SDS011;68864;44.972;19.612;2023-12-14T05:44:22;20.05;;;9.27;;
79414;SDS011;68864;44.972;19.612;2023-12-14T05:49:18;15.93;;;8.63;;
79414;SDS011;68864;44.972;19.612;2023-12-14T05:51:44;15.93;;;12.30;;
79414;SDS011;68864;44.972;19.612;2023-12-14T05:54:11;16.85;;;11.05;;
79414;SDS011;68864;44.972;19.612;2023-12-14T05:56:38;13.15;;;5.32;;
79414;SDS011;68864;44.972;19.612;2023-12-14T06:01:32;14.30;;;10.63;;
79414;SDS011;68864;44.972;19.612;2023-12-14T06:03:59;20.33;;;9.85;;
79414;SDS011;68864;44.972;19.612;2023-12-14T06:06:28;16.13;;;7.50;;
79414;SDS011;68864;44.972;19.612;2023-12-14T06:08:55;47.38;;;24.80;;
79414;SDS011;68864;44.972;19.612;2023-12-14T06:11:22;40.30;;;21.58;;
79414;SDS011;68864;44.972;19.612;2023-12-14T06:13:49;30.30;;;19.13;;
79414;SDS011;68864;44.972;19.612;2023-12-14T06:16:16;28.98;;;15.48;;
79414;SDS011;68864;44.972;19.612;2023-12-14T06:18:43;17.88;;;11.52;;
79414;SDS011;68864;44.972;19.612;2023-12-14T06:21:11;20.25;;;7.68;;
79414;SDS011;68864;44.972;19.612;2023-12-14T06:23:40;19.52;;;9.50;;
79414;SDS011;68864;44.972;19.612;2023-12-14T06:26:07;18.98;;;10.98;;
79414;SDS011;68864;44.972;19.612;2023-12-14T06:28:34;14.57;;;7.30;;
79414;SDS011;68864;44.972;19.612;2023-12-14T06:31:00;18.95;;;10.98;;
79414;SDS011;68864;44.972;19.612;2023-12-14T06:33:27;23.83;;;11.98;;
79414;SDS011;68864;44.972;19.612;2023-12-14T06:35:54;23.48;;;13.85;;
79414;SDS011;68864;44.972;19.612;2023-12-14T06:38:21;32.13;;;14.23;;
79414;SDS011;68864;44.972;19.612;2023-12-14T06:40:50;23.83;;;12.68;;
79414;SDS011;68864;44.972;19.612;2023-12-14T06:43:17;15.18;;;8.85;;
79414;SDS011;68864;44.972;19.612;2023-12-14T06:45:43;13.77;;;7.47;;
79414;SDS011;68864;44.972;19.612;2023-12-14T06:48:10;11.07;;;5.90;;
79414;SDS011;68864;44.972;19.612;2023-12-14T06:50:37;14.63;;;9.23;;
79414;SDS011;68864;44.972;19.612;2023-12-14T06:53:04;16.75;;;7.85;;
79414;SDS011;68864;44.972;19.612;2023-12-14T06:55:31;15.23;;;10.25;;
79414;SDS011;68864;44.972;19.612;2023-12-14T06:58:00;15.23;;;7.63;;
79414;SDS011;68864;44.972;19.612;2023-12-14T07:00:26;17.33;;;7.65;;
79414;SDS011;68864;44.972;19.612;2023-12-14T07:02:54;11.52;;;5.57;;
79414;SDS011;68864;44.972;19.612;2023-12-14T07:05:21;15.13;;;7.65;;
79414;SDS011;68864;44.972;19.612;2023-12-14T07:07:48;39.50;;;20.23;;
79414;SDS011;68864;44.972;19.612;2023-12-14T07:10:15;24.85;;;14.00;;
79414;SDS011;68864;44.972;19.612;2023-12-14T07:12:42;18.13;;;10.40;;
79414;SDS011;68864;44.972;19.612;2023-12-14T07:15:10;21.83;;;11.98;;
79414;SDS011;68864;44.972;19.612;2023-12-14T07:17:37;23.77;;;14.65;;
79414;SDS011;68864;44.972;19.612;2023-12-14T07:20:05;25.05;;;17.13;;
79414;SDS011;68864;44.972;19.612;2023-12-14T07:22:33;27.98;;;18.23;;
79414;SDS011;68864;44.972;19.612;2023-12-14T07:25:00;20.70;;;13.90;;
79414;SDS011;68864;44.972;19.612;2023-12-14T07:27:27;16.73;;;12.27;;
79414;SDS011;68864;44.972;19.612;2023-12-14T07:29:53;11.55;;;9.05;;
79414;SDS011;68864;44.972;19.612;2023-12-14T07:32:22;18.45;;;11.13;;
79414;SDS011;68864;44.972;19.612;2023-12-14T07:34:49;19.98;;;11.18;;
79414;SDS011;68864;44.972;19.612;2023-12-14T07:37:16;16.38;;;7.18;;
79414;SDS011;68864;44.972;19.612;2023-12-14T07:39:43;23.33;;;12.25;;
79414;SDS011;68864;44.972;19.612;2023-12-14T07:42:09;19.10;;;8.00;;
79414;SDS011;68864;44.972;19.612;2023-12-14T07:44:37;41.17;;;18.20;;
79414;SDS011;68864;44.972;19.612;2023-12-14T07:47:05;23.30;;;13.40;;
79414;SDS011;68864;44.972;19.612;2023-12-14T07:49:34;17.50;;;7.25;;
79414;SDS011;68864;44.972;19.612;2023-12-14T07:52:01;11.23;;;6.45;;
79414;SDS011;68864;44.972;19.612;2023-12-14T07:54:28;6.95;;;3.05;;
79414;SDS011;68864;44.972;19.612;2023-12-14T07:56:55;7.22;;;2.90;;
79414;SDS011;68864;44.972;19.612;2023-12-14T07:59:22;10.23;;;5.78;;
79414;SDS011;68864;44.972;19.612;2023-12-14T08:01:49;7.28;;;3.08;;
79414;SDS011;68864;44.972;19.612;2023-12-14T08:04:15;9.18;;;4.57;;
79414;SDS011;68864;44.972;19.612;2023-12-14T08:06:44;6.88;;;2.83;;
79414;SDS011;68864;44.972;19.612;2023-12-14T08:09:11;9.60;;;4.53;;
79414;SDS011;68864;44.972;19.612;2023-12-14T08:11:38;12.20;;;8.07;;
79414;SDS011;68864;44.972;19.612;2023-12-14T08:14:05;13.15;;;9.27;;
79414;SDS011;68864;44.972;19.612;2023-12-14T08:16:31;14.90;;;8.38;;
79414;SDS011;68864;44.972;19.612;2023-12-14T08:18:58;13.38;;;6.70;;
79414;SDS011;68864;44.972;19.612;2023-12-14T08:21:26;19.65;;;10.10;;
79414;SDS011;68864;44.972;19.612;2023-12-14T08:23:54;17.08;;;8.32;;
79414;SDS011;68864;44.972;19.612;2023-12-14T08:26:21;14.73;;;7.90;;
79414;SDS011;68864;44.972;19.612;2023-12-14T08:28:48;18.50;;;8.93;;
79414;SDS011;68864;44.972;19.612;2023-12-14T08:31:15;18.25;;;8.05;;
79414;SDS011;68864;44.972;19.612;2023-12-14T08:33:42;19.02;;;7.88;;
79414;SDS011;68864;44.972;19.612;2023-12-14T08:36:09;17.48;;;10.85;;
79414;SDS011;68864;44.972;19.612;2023-12-14T08:38:36;16.52;;;9.18;;
79414;SDS011;68864;44.972;19.612;2023-12-14T08:41:05;13.85;;;5.95;;
79414;SDS011;68864;44.972;19.612;2023-12-14T08:43:32;13.43;;;6.13;;
79414;SDS011;68864;44.972;19.612;2023-12-14T08:45:58;13.48;;;7.57;;
79414;SDS011;68864;44.972;19.612;2023-12-14T08:48:25;10.68;;;5.07;;
79414;SDS011;68864;44.972;19.612;2023-12-14T08:50:53;15.43;;;11.15;;
79414;SDS011;68864;44.972;19.612;2023-12-14T08:53:20;13.63;;;8.63;;
79414;SDS011;68864;44.972;19.612;2023-12-14T08:55:47;15.00;;;7.55;;
79414;SDS011;68864;44.972;19.612;2023-12-14T08:58:15;43.85;;;27.13;;
79414;SDS011;68864;44.972;19.612;2023-12-14T09:00:42;24.30;;;10.90;;
79414;SDS011;68864;44.972;19.612;2023-12-14T09:03:09;18.77;;;10.52;;
79414;SDS011;68864;44.972;19.612;2023-12-14T09:05:36;22.15;;;13.20;;
79414;SDS011;68864;44.972;19.612;2023-12-14T09:08:07;15.43;;;8.98;;
79414;SDS011;68864;44.972;19.612;2023-12-14T09:10:34;11.52;;;5.90;;
79414;SDS011;68864;44.972;19.612;2023-12-14T09:13:01;13.57;;;6.65;;
79414;SDS011;68864;44.972;19.612;2023-12-14T09:15:30;12.55;;;6.68;;
79414;SDS011;68864;44.972;19.612;2023-12-14T09:17:58;14.60;;;10.40;;
79414;SDS011;68864;44.972;19.612;2023-12-14T09:20:24;14.00;;;5.50;;
79414;SDS011;68864;44.972;19.612;2023-12-14T09:22:51;14.18;;;7.93;;
79414;SDS011;68864;44.972;19.612;2023-12-14T09:25:18;10.65;;;5.05;;
79414;SDS011;68864;44.972;19.612;2023-12-14T09:27:45;12.57;;;5.35;;
79414;SDS011;68864;44.972;19.612;2023-12-14T09:30:12;10.77;;;4.90;;
79414;SDS011;68864;44.972;19.612;2023-12-14T09:35:09;8.95;;;5.80;;
79414;SDS011;68864;44.972;19.612;2023-12-14T09:37:35;11.45;;;5.50;;
79414;SDS011;68864;44.972;19.612;2023-12-14T09:40:03;11.40;;;5.00;;
79414;SDS011;68864;44.972;19.612;2023-12-14T09:42:33;11.43;;;4.57;;
79414;SDS011;68864;44.972;19.612;2023-12-14T09:45:04;8.90;;;4.50;;
79414;SDS011;68864;44.972;19.612;2023-12-14T09:47:33;8.27;;;3.90;;
79414;SDS011;68864;44.972;19.612;2023-12-14T09:50:02;14.40;;;9.15;;
79414;SDS011;68864;44.972;19.612;2023-12-14T09:52:30;13.30;;;6.35;;
79414;SDS011;68864;44.972;19.612;2023-12-14T09:54:58;13.32;;;8.38;;
79414;SDS011;68864;44.972;19.612;2023-12-14T09:57:25;9.82;;;5.70;;
79414;SDS011;68864;44.972;19.612;2023-12-14T09:59:52;10.15;;;6.57;;
79414;SDS011;68864;44.972;19.612;2023-12-14T10:02:19;6.22;;;3.67;;
79414;SDS011;68864;44.972;19.612;2023-12-14T10:04:50;7.60;;;2.83;;
79414;SDS011;68864;44.972;19.612;2023-12-14T10:07:19;9.63;;;4.00;;
79414;SDS011;68864;44.972;19.612;2023-12-14T10:09:47;5.95;;;2.85;;
79414;SDS011;68864;44.972;19.612;2023-12-14T10:12:15;7.65;;;4.43;;
79414;SDS011;68864;44.972;19.612;2023-12-14T10:14:42;9.23;;;6.13;;
79414;SDS011;68864;44.972;19.612;2023-12-14T10:17:18;12.82;;;3.15;;
79414;SDS011;68864;44.972;19.612;2023-12-14T10:19:47;8.02;;;2.80;;
79414;SDS011;68864;44.972;19.612;2023-12-14T10:22:15;10.60;;;2.72;;
79414;SDS011;68864;44.972;19.612;2023-12-14T10:24:44;4.75;;;1.60;;
79414;SDS011;68864;44.972;19.612;2023-12-14T10:27:11;7.32;;;2.38;;
79414;SDS011;68864;44.972;19.612;2023-12-14T10:29:41;7.30;;;2.40;;
79414;SDS011;68864;44.972;19.612;2023-12-14T10:32:10;9.57;;;3.53;;
79414;SDS011;68864;44.972;19.612;2023-12-14T10:34:37;9.98;;;6.55;;
79414;SDS011;68864;44.972;19.612;2023-12-14T10:37:04;8.68;;;4.32;;
79414;SDS011;68864;44.972;19.612;2023-12-14T10:39:32;10.98;;;8.20;;
79414;SDS011;68864;44.972;19.612;2023-12-14T10:42:03;13.20;;;5.70;;
79414;SDS011;68864;44.972;19.612;2023-12-14T10:44:33;18.60;;;10.50;;
79414;SDS011;68864;44.972;19.612;2023-12-14T10:47:02;31.83;;;15.25;;
79414;SDS011;68864;44.972;19.612;2023-12-14T10:49:30;23.08;;;11.25;;
79414;SDS011;68864;44.972;19.612;2023-12-14T10:51:59;23.23;;;10.88;;
79414;SDS011;68864;44.972;19.612;2023-12-14T10:54:29;15.98;;;9.07;;
79414;SDS011;68864;44.972;19.612;2023-12-14T10:57:02;15.52;;;6.43;;
79414;SDS011;68864;44.972;19.612;2023-12-14T10:59:31;16.10;;;8.32;;
79414;SDS011;68864;44.972;19.612;2023-12-14T11:01:58;13.32;;;6.38;;
79414;SDS011;68864;44.972;19.612;2023-12-14T11:04:25;9.73;;;5.00;;
79414;SDS011;68864;44.972;19.612;2023-12-14T11:06:53;8.95;;;3.50;;
79414;SDS011;68864;44.972;19.612;2023-12-14T11:09:21;6.03;;;2.70;;
79414;SDS011;68864;44.972;19.612;2023-12-14T11:11:54;4.97;;;1.45;;
79414;SDS011;68864;44.972;19.612;2023-12-14T11:14:26;7.22;;;4.63;;
79414;SDS011;68864;44.972;19.612;2023-12-14T11:16:54;5.03;;;2.25;;
79414;SDS011;68864;44.972;19.612;2023-12-14T11:19:26;26.73;;;16.40;;
79414;SDS011;68864;44.972;19.612;2023-12-14T11:22:11;9.88;;;4.57;;
79414;SDS011;68864;44.972;19.612;2023-12-14T11:24:50;8.23;;;5.55;;
79414;SDS011;68864;44.972;19.612;2023-12-14T11:27:20;14.90;;;13.52;;
79414;SDS011;68864;44.972;19.612;2023-12-14T11:29:54;7.38;;;4.18;;
79414;SDS011;68864;44.972;19.612;2023-12-14T11:32:20;6.13;;;2.08;;
79414;SDS011;68864;44.972;19.612;2023-12-14T11:34:47;7.18;;;2.50;;
79414;SDS011;68864;44.972;19.612;2023-12-14T11:37:14;4.93;;;1.90;;
79414;SDS011;68864;44.972;19.612;2023-12-14T11:39:41;6.55;;;4.05;;
79414;SDS011;68864;44.972;19.612;2023-12-14T11:42:09;10.30;;;6.65;;
79414;SDS011;68864;44.972;19.612;2023-12-14T11:44:36;8.95;;;3.28;;
79414;SDS011;68864;44.972;19.612;2023-12-14T11:47:05;9.60;;;3.75;;
79414;SDS011;68864;44.972;19.612;2023-12-14T11:49:34;9.27;;;4.15;;
79414;SDS011;68864;44.972;19.612;2023-12-14T11:52:01;7.95;;;3.58;;
79414;SDS011;68864;44.972;19.612;2023-12-14T11:54:30;7.03;;;2.28;;
79414;SDS011;68864;44.972;19.612;2023-12-14T11:56:57;7.10;;;2.25;;
79414;SDS011;68864;44.972;19.612;2023-12-14T11:59:24;9.52;;;3.70;;
79414;SDS011;68864;44.972;19.612;2023-12-14T12:01:53;12.30;;;4.60;;
79414;SDS011;68864;44.972;19.612;2023-12-14T12:04:23;10.88;;;6.50;;
79414;SDS011;68864;44.972;19.612;2023-12-14T12:06:58;10.48;;;4.45;;
79414;SDS011;68864;44.972;19.612;2023-12-14T12:09:35;8.23;;;3.80;;
79414;SDS011;68864;44.972;19.612;2023-12-14T12:12:07;13.15;;;7.07;;
79414;SDS011;68864;44.972;19.612;2023-12-14T12:14:34;15.88;;;9.63;;
79414;SDS011;68864;44.972;19.612;2023-12-14T12:19:31;14.80;;;9.73;;
79414;SDS011;68864;44.972;19.612;2023-12-14T12:21:58;13.20;;;6.47;;
79414;SDS011;68864;44.972;19.612;2023-12-14T12:24:25;13.95;;;5.38;;
79414;SDS011;68864;44.972;19.612;2023-12-14T12:26:52;12.75;;;6.05;;
79414;SDS011;68864;44.972;19.612;2023-12-14T12:29:19;10.95;;;5.35;;
79414;SDS011;68864;44.972;19.612;2023-12-14T12:31:46;10.35;;;4.70;;
79414;SDS011;68864;44.972;19.612;2023-12-14T12:34:13;11.32;;;8.10;;
79414;SDS011;68864;44.972;19.612;2023-12-14T12:36:41;11.27;;;7.50;;
79414;SDS011;68864;44.972;19.612;2023-12-14T12:39:08;11.05;;;8.27;;
79414;SDS011;68864;44.972;19.612;2023-12-14T12:41:35;12.00;;;8.00;;
79414;SDS011;68864;44.972;19.612;2023-12-14T12:44:03;12.75;;;5.13;;
79414;SDS011;68864;44.972;19.612;2023-12-14T12:46:33;11.48;;;5.03;;
79414;SDS011;68864;44.972;19.612;2023-12-14T12:49:00;8.93;;;4.13;;
79414;SDS011;68864;44.972;19.612;2023-12-14T12:51:28;14.52;;;7.35;;
79414;SDS011;68864;44.972;19.612;2023-12-14T12:53:57;12.45;;;10.73;;
79414;SDS011;68864;44.972;19.612;2023-12-14T12:56:25;10.25;;;4.35;;
79414;SDS011;68864;44.972;19.612;2023-12-14T12:58:52;9.15;;;4.13;;
79414;SDS011;68864;44.972;19.612;2023-12-14T13:01:20;10.73;;;5.22;;
79414;SDS011;68864;44.972;19.612;2023-12-14T13:06:19;10.15;;;4.38;;
79414;SDS011;68864;44.972;19.612;2023-12-14T13:08:46;8.07;;;3.90;;
79414;SDS011;68864;44.972;19.612;2023-12-14T13:11:14;9.80;;;6.93;;
79414;SDS011;68864;44.972;19.612;2023-12-14T13:13:41;9.88;;;6.50;;
79414;SDS011;68864;44.972;19.612;2023-12-14T13:16:09;9.27;;;6.75;;
79414;SDS011;68864;44.972;19.612;2023-12-14T13:21:03;7.72;;;3.42;;
79414;SDS011;68864;44.972;19.612;2023-12-14T13:23:30;11.07;;;6.78;;
79414;SDS011;68864;44.972;19.612;2023-12-14T13:25:58;11.45;;;4.30;;
79414;SDS011;68864;44.972;19.612;2023-12-14T13:28:26;12.13;;;8.15;;
79414;SDS011;68864;44.972;19.612;2023-12-14T13:30:53;15.57;;;7.15;;
79414;SDS011;68864;44.972;19.612;2023-12-14T13:35:47;10.32;;;5.07;;
79414;SDS011;68864;44.972;19.612;2023-12-14T13:38:14;12.73;;;5.97;;
79414;SDS011;68864;44.972;19.612;2023-12-14T13:40:41;12.43;;;9.13;;
79414;SDS011;68864;44.972;19.612;2023-12-14T13:43:08;12.50;;;6.88;;
79414;SDS011;68864;44.972;19.612;2023-12-14T13:45:37;13.50;;;7.35;;
79414;SDS011;68864;44.972;19.612;2023-12-14T13:48:07;13.98;;;7.60;;
79414;SDS011;68864;44.972;19.612;2023-12-14T13:50:34;17.70;;;12.40;;
79414;SDS011;68864;44.972;19.612;2023-12-14T13:53:01;11.57;;;6.50;;
79414;SDS011;68864;44.972;19.612;2023-12-14T13:55:29;14.27;;;10.80;;
79414;SDS011;68864;44.972;19.612;2023-12-14T13:57:56;19.52;;;9.20;;
79414;SDS011;68864;44.972;19.612;2023-12-14T14:00:25;21.08;;;10.38;;
79414;SDS011;68864;44.972;19.612;2023-12-14T14:02:53;19.02;;;10.32;;
79414;SDS011;68864;44.972;19.612;2023-12-14T14:05:21;19.08;;;10.75;;
79414;SDS011;68864;44.972;19.612;2023-12-14T14:07:48;18.25;;;9.35;;
79414;SDS011;68864;44.972;19.612;2023-12-14T14:10:15;23.48;;;12.13;;
79414;SDS011;68864;44.972;19.612;2023-12-14T14:12:42;19.25;;;11.43;;
79414;SDS011;68864;44.972;19.612;2023-12-14T14:15:09;18.77;;;10.73;;
79414;SDS011;68864;44.972;19.612;2023-12-14T14:17:36;21.10;;;11.15;;
79414;SDS011;68864;44.972;19.612;2023-12-14T14:20:05;19.55;;;11.77;;
79414;SDS011;68864;44.972;19.612;2023-12-14T14:22:35;24.80;;;13.27;;
79414;SDS011;68864;44.972;19.612;2023-12-14T14:25:02;26.98;;;12.95;;
79414;SDS011;68864;44.972;19.612;2023-12-14T14:27:30;25.60;;;15.88;;
79414;SDS011;68864;44.972;19.612;2023-12-14T14:29:57;15.68;;;9.07;;
79414;SDS011;68864;44.972;19.612;2023-12-14T14:32:24;19.05;;;13.10;;
79414;SDS011;68864;44.972;19.612;2023-12-14T14:34:51;16.42;;;9.23;;
79414;SDS011;68864;44.972;19.612;2023-12-14T14:37:21;15.75;;;9.10;;
79414;SDS011;68864;44.972;19.612;2023-12-14T14:39:48;17.30;;;9.00;;
79414;SDS011;68864;44.972;19.612;2023-12-14T14:42:15;18.23;;;9.68;;
79414;SDS011;68864;44.972;19.612;2023-12-14T14:44:42;18.15;;;9.70;;
79414;SDS011;68864;44.972;19.612;2023-12-14T14:47:09;17.02;;;8.45;;
79414;SDS011;68864;44.972;19.612;2023-12-14T14:49:36;18.17;;;13.43;;
79414;SDS011;68864;44.972;19.612;2023-12-14T14:52:03;22.73;;;11.63;;
79414;SDS011;68864;44.972;19.612;2023-12-14T14:54:32;16.58;;;9.00;;
79414;SDS011;68864;44.972;19.612;2023-12-14T14:56:58;21.48;;;10.75;;
79414;SDS011;68864;44.972;19.612;2023-12-14T14:59:26;17.65;;;8.88;;
79414;SDS011;68864;44.972;19.612;2023-12-14T15:01:55;22.27;;;15.35;;
79414;SDS011;68864;44.972;19.612;2023-12-14T15:04:24;21.98;;;10.40;;
79414;SDS011;68864;44.972;19.612;2023-12-14T15:06:52;21.30;;;11.23;;
79414;SDS011;68864;44.972;19.612;2023-12-14T15:09:19;20.42;;;10.43;;
79414;SDS011;68864;44.972;19.612;2023-12-14T15:11:47;27.60;;;13.40;;